Time;durP1;ratioP1;P1;durP2;ratioP2;P2;SDS_P1;SDS_P2;PMS_P1;PMS_P2;Temp;Humidity;BMP_temperature;BMP_pressure;BME280_temperature;BME280_humidity;BME280_pressure;Samples;Min_cycle;Max_cycle;Signal;HPM_P1;HPM_P2
2021/11/09 00:00:32;;;;;;;18.52;6.75;;;6.10;99.90;;;;;;4992604;28;20025;-68
2021/11/09 00:02:58;;;;;;;13.75;7.05;;;6.20;99.90;;;;;;4991361;28;20057;-69
2021/11/09 00:05:27;;;;;;;16.63;7.65;;;6.20;99.90;;;;;;4991463;28;20021;-69
2021/11/09 00:07:56;;;;;;;14.38;6.72;;;6.20;99.90;;;;;;4991433;28;20030;-68
2021/11/09 00:10:23;;;;;;;16.77;6.53;;;6.20;99.90;;;;;;4973982;28;20037;-66
2021/11/09 00:12:55;;;;;;;15.95;7.00;;;6.20;99.90;;;;;;4990833;28;20402;-69
2021/11/09 00:15:23;;;;;;;14.68;6.85;;;6.10;99.90;;;;;;4990965;28;20419;-67
2021/11/09 00:17:53;;;;;;;13.75;7.07;;;6.10;99.90;;;;;;4981307;28;20517;-65
2021/11/09 00:20:21;;;;;;;13.60;7.50;;;6.10;99.90;;;;;;4990224;28;20113;-65
2021/11/09 00:22:47;;;;;;;15.13;7.32;;;6.10;99.90;;;;;;4990976;28;20066;-66
2021/11/09 00:25:14;;;;;;;18.80;7.85;;;6.10;99.90;;;;;;4988322;28;20054;-65
2021/11/09 00:27:40;;;;;;;14.70;7.22;;;6.10;99.90;;;;;;4990934;28;20061;-67
2021/11/09 00:30:08;;;;;;;18.38;6.95;;;6.10;99.90;;;;;;4990992;28;20034;-67
2021/11/09 00:32:34;;;;;;;15.43;6.93;;;6.10;99.90;;;;;;4990554;28;20076;-69
2021/11/09 00:35:00;;;;;;;14.68;6.75;;;6.10;99.90;;;;;;4990177;28;20395;-71
2021/11/09 00:37:26;;;;;;;16.75;7.47;;;6.10;99.90;;;;;;4983152;28;20089;-66
2021/11/09 00:39:52;;;;;;;14.30;7.70;;;6.10;99.90;;;;;;4990926;28;20026;-65
2021/11/09 00:42:18;;;;;;;15.75;7.68;;;6.10;99.90;;;;;;4990861;28;20026;-66
2021/11/09 00:44:43;;;;;;;14.15;8.05;;;6.10;99.90;;;;;;4972414;28;20101;-66
2021/11/09 00:47:09;;;;;;;13.65;7.85;;;6.00;99.90;;;;;;4976703;28;20062;-65
2021/11/09 00:49:35;;;;;;;18.20;7.63;;;6.00;99.90;;;;;;4990662;28;20184;-65
2021/11/09 00:52:01;;;;;;;18.85;8.35;;;6.00;99.90;;;;;;4992600;28;20430;-66
2021/11/09 00:54:28;;;;;;;22.13;7.55;;;6.00;99.90;;;;;;4991202;28;20027;-65
2021/11/09 00:56:54;;;;;;;17.08;7.50;;;6.00;99.90;;;;;;4973645;28;20394;-66
2021/11/09 00:59:19;;;;;;;14.35;7.32;;;6.00;99.90;;;;;;4990479;28;20040;-66
2021/11/09 01:01:45;;;;;;;13.73;7.90;;;5.90;99.90;;;;;;4990956;28;20462;-65
2021/11/09 01:04:11;;;;;;;15.68;7.10;;;5.90;99.90;;;;;;4989513;28;20026;-68
2021/11/09 01:06:36;;;;;;;19.77;7.68;;;5.90;99.90;;;;;;4987710;28;20395;-71
2021/11/09 01:09:04;;;;;;;16.10;7.80;;;5.90;99.90;;;;;;4990237;28;20049;-65
2021/11/09 01:11:30;;;;;;;14.43;7.90;;;5.90;99.90;;;;;;4990730;28;20042;-67
2021/11/09 01:13:56;;;;;;;14.63;7.43;;;5.90;99.90;;;;;;4989736;28;20149;-66
2021/11/09 01:16:23;;;;;;;14.45;7.72;;;5.90;99.90;;;;;;4986770;28;20140;-66
2021/11/09 01:18:53;;;;;;;15.07;7.43;;;6.00;99.90;;;;;;4989809;28;20680;-66
2021/11/09 01:21:20;;;;;;;19.77;7.85;;;6.00;99.90;;;;;;4990487;28;20026;-69
2021/11/09 01:23:49;;;;;;;18.55;8.00;;;6.00;99.90;;;;;;4989069;28;20045;-66
2021/11/09 01:26:16;;;;;;;19.20;7.95;;;6.00;99.90;;;;;;4989364;28;20156;-66
2021/11/09 01:28:43;;;;;;;15.35;7.70;;;6.00;99.90;;;;;;4977575;28;20453;-66
2021/11/09 01:31:09;;;;;;;15.18;7.13;;;5.90;99.90;;;;;;4989167;28;20054;-65
2021/11/09 01:33:37;;;;;;;15.02;7.57;;;5.90;99.90;;;;;;4989786;28;20030;-72
2021/11/09 01:36:04;;;;;;;18.48;9.07;;;5.90;99.90;;;;;;4990065;28;20073;-65
2021/11/09 01:38:29;;;;;;;22.98;8.32;;;5.90;99.90;;;;;;4983760;28;20149;-70
2021/11/09 01:40:56;;;;;;;16.88;7.88;;;5.90;99.90;;;;;;4989513;28;20102;-71
2021/11/09 01:43:23;;;;;;;13.27;7.55;;;5.90;99.90;;;;;;4989397;28;20038;-70
2021/11/09 01:45:50;;;;;;;17.63;7.97;;;6.00;99.90;;;;;;4972638;28;20026;-66
2021/11/09 01:48:16;;;;;;;13.48;7.90;;;5.90;99.90;;;;;;4982304;28;20490;-71
2021/11/09 01:50:50;;;;;;;17.15;7.70;;;5.90;99.90;;;;;;4989627;28;20101;-69
2021/11/09 01:53:16;;;;;;;14.98;7.30;;;5.90;99.90;;;;;;4988797;28;20042;-65
2021/11/09 01:55:43;;;;;;;14.23;8.20;;;5.80;99.90;;;;;;4989997;28;20035;-71
2021/11/09 01:58:11;;;;;;;14.60;8.13;;;5.80;99.90;;;;;;4971849;28;20034;-66
2021/11/09 02:00:41;;;;;;;20.58;7.95;;;5.70;99.90;;;;;;4960378;28;20035;-66
2021/11/09 02:03:07;;;;;;;20.92;7.57;;;5.70;99.90;;;;;;4992218;28;20121;-65
2021/11/09 02:05:33;;;;;;;20.30;8.55;;;5.70;99.90;;;;;;4980451;28;20142;-67
2021/11/09 02:08:01;;;;;;;12.13;7.40;;;5.70;99.90;;;;;;4988393;28;20498;-66
2021/11/09 02:10:30;;;;;;;13.88;7.53;;;5.70;99.90;;;;;;4975515;28;20391;-66
2021/11/09 02:12:57;;;;;;;15.68;8.48;;;5.60;99.90;;;;;;4989737;28;20034;-65
2021/11/09 02:15:23;;;;;;;17.48;8.02;;;5.60;99.90;;;;;;4990186;28;20042;-67
2021/11/09 02:17:49;;;;;;;18.20;8.27;;;5.60;99.90;;;;;;4985909;28;20486;-69
2021/11/09 02:20:19;;;;;;;16.88;7.95;;;5.60;99.90;;;;;;4992719;28;20039;-68
2021/11/09 02:22:45;;;;;;;20.55;7.65;;;5.60;99.90;;;;;;4992205;28;20517;-68
2021/11/09 02:25:14;;;;;;;13.18;7.13;;;5.60;99.90;;;;;;4991633;28;20045;-68
2021/11/09 02:27:41;;;;;;;18.13;8.10;;;5.50;99.90;;;;;;4992913;28;20114;-65
2021/11/09 02:30:09;;;;;;;20.67;7.97;;;5.50;99.90;;;;;;4993521;28;20609;-66
2021/11/09 02:32:35;;;;;;;18.05;7.78;;;5.50;99.90;;;;;;4992886;28;20022;-71
2021/11/09 02:35:00;;;;;;;14.15;6.93;;;5.50;99.90;;;;;;4992834;28;20321;-65
2021/11/09 02:37:27;;;;;;;14.13;7.80;;;5.50;99.90;;;;;;4992888;28;20041;-65
2021/11/09 02:39:53;;;;;;;13.45;7.53;;;5.50;99.90;;;;;;4992443;28;20034;-66
2021/11/09 02:42:20;;;;;;;17.27;7.55;;;5.50;99.90;;;;;;4991370;28;20364;-72
2021/11/09 02:44:55;;;;;;;14.93;7.75;;;5.50;99.90;;;;;;4988870;28;20069;-66
2021/11/09 02:47:24;;;;;;;17.40;7.47;;;5.50;99.90;;;;;;4983867;28;20034;-67
2021/11/09 02:52:16;;;;;;;16.70;7.28;;;5.50;99.90;;;;;;4992904;28;20675;-68
2021/11/09 02:54:44;;;;;;;15.88;7.80;;;5.50;99.90;;;;;;4992158;28;20026;-67
2021/11/09 02:57:41;;;;;;;20.58;7.72;;;5.50;99.90;;;;;;4983373;28;20386;-66
2021/11/09 03:00:28;;;;;;;12.18;6.68;;;5.40;99.90;;;;;;4978340;28;20359;-67
2021/11/09 03:03:18;;;;;;;14.88;7.32;;;5.40;99.90;;;;;;4974461;28;20117;-68
2021/11/09 03:05:48;;;;;;;17.00;7.10;;;5.40;99.90;;;;;;4992446;28;20105;-67
2021/11/09 03:10:49;;;;;;;15.85;8.18;;;5.30;99.90;;;;;;4992596;28;20041;-71
2021/11/09 03:13:15;;;;;;;15.70;8.38;;;5.30;99.90;;;;;;4974525;28;20026;-67
2021/11/09 03:15:40;;;;;;;17.90;8.32;;;5.20;99.90;;;;;;4989802;28;20018;-67
2021/11/09 03:18:10;;;;;;;13.70;7.82;;;5.20;99.90;;;;;;4992106;28;20438;-70
2021/11/09 03:47:14;;;;;;;13.93;7.22;;;4.70;99.90;;;;;;4991544;28;20137;-72
2021/11/09 03:49:41;;;;;;;13.98;7.38;;;4.60;99.90;;;;;;4973529;28;20030;-72
2021/11/09 03:52:14;;;;;;;15.43;7.60;;;4.60;99.90;;;;;;4992539;28;20015;-72
2021/11/09 03:54:40;;;;;;;14.25;7.35;;;4.60;99.90;;;;;;4990032;28;20022;-72
2021/11/09 03:57:51;;;;;;;16.95;7.72;;;4.60;99.90;;;;;;4973210;28;20148;-72
2021/11/09 04:00:11;;;;;;;17.88;7.93;;;4.50;99.90;;;;;;4983219;28;20034;-71
2021/11/09 04:05:14;;;;;;;13.98;8.05;;;4.50;99.90;;;;;;4983102;28;20050;-72
2021/11/09 04:08:47;;;;;;;17.73;7.95;;;4.50;99.90;;;;;;4991669;28;20045;-72
2021/11/09 04:11:22;;;;;;;14.98;7.65;;;4.40;99.90;;;;;;4976092;28;20035;-72
2021/11/09 04:14:13;;;;;;;14.23;7.47;;;4.30;99.90;;;;;;4979736;28;20038;-72
2021/11/09 04:16:36;;;;;;;11.98;6.80;;;4.30;99.90;;;;;;4967929;28;20121;-72
2021/11/09 04:19:20;;;;;;;17.35;7.80;;;4.30;99.90;;;;;;4981990;28;20597;-72
2021/11/09 04:27:28;;;;;;;13.50;7.22;;;4.20;99.90;;;;;;4984526;28;20037;-72
2021/11/09 05:02:41;;;;;;;15.52;7.15;;;3.80;99.90;;;;;;4990780;28;20711;-71
2021/11/09 05:10:35;;;;;;;14.82;7.03;;;3.70;99.90;;;;;;4991544;28;20181;-72
2021/11/09 05:13:01;;;;;;;16.50;7.10;;;3.70;99.90;;;;;;4990096;28;20105;-72
2021/11/09 05:15:27;;;;;;;14.55;7.10;;;3.70;99.90;;;;;;4985942;28;20522;-72
2021/11/09 05:17:53;;;;;;;14.30;6.93;;;3.60;99.90;;;;;;4972182;28;20043;-72
2021/11/09 05:20:18;;;;;;;14.43;7.22;;;3.60;99.90;;;;;;4973511;28;20022;-72
2021/11/09 05:22:45;;;;;;;11.88;6.55;;;3.60;99.90;;;;;;4972805;28;20058;-72
2021/11/09 05:25:11;;;;;;;14.00;6.22;;;3.60;99.90;;;;;;4989908;28;20458;-72
2021/11/09 05:27:37;;;;;;;14.10;6.88;;;3.60;99.90;;;;;;4984050;28;20022;-72
2021/11/09 05:30:04;;;;;;;13.93;6.47;;;3.60;99.90;;;;;;4973411;28;20914;-71
2021/11/09 05:32:29;;;;;;;11.82;6.88;;;3.60;99.90;;;;;;4990530;28;20026;-72
2021/11/09 05:34:55;;;;;;;13.15;6.55;;;3.60;99.90;;;;;;4990341;28;20042;-72
2021/11/09 05:37:26;;;;;;;12.80;6.35;;;3.70;99.90;;;;;;4991293;28;20022;-71
2021/11/09 05:39:54;;;;;;;12.75;6.88;;;3.60;99.90;;;;;;4973581;28;20113;-72
2021/11/09 05:42:20;;;;;;;15.02;6.70;;;3.60;99.90;;;;;;4990295;28;20033;-72
2021/11/09 05:44:46;;;;;;;11.60;6.38;;;3.60;99.90;;;;;;4989897;28;20117;-71
2021/11/09 05:47:13;;;;;;;17.48;6.60;;;3.60;99.90;;;;;;4980495;28;20027;-72
2021/11/09 05:49:39;;;;;;;11.85;6.45;;;3.60;99.90;;;;;;4988617;28;20388;-70
2021/11/09 05:52:05;;;;;;;9.45;5.90;;;3.60;99.90;;;;;;4994486;28;20061;-69
2021/11/09 05:54:30;;;;;;;12.15;7.20;;;3.60;99.90;;;;;;4976292;28;20121;-73
2021/11/09 05:56:56;;;;;;;12.50;6.53;;;3.50;99.90;;;;;;4981584;28;20118;-74
2021/11/09 05:59:22;;;;;;;11.95;6.57;;;3.50;99.90;;;;;;4974243;28;20026;-75
2021/11/09 06:01:48;;;;;;;14.80;6.90;;;3.40;99.90;;;;;;4994956;28;20367;-73
2021/11/09 06:04:14;;;;;;;17.98;6.50;;;3.40;99.90;;;;;;4993634;28;20034;-74
2021/11/09 06:06:40;;;;;;;16.45;7.18;;;3.30;99.90;;;;;;4994475;28;20498;-74
2021/11/09 06:09:06;;;;;;;16.17;6.72;;;3.30;99.90;;;;;;4976548;28;20030;-73
2021/11/09 06:11:32;;;;;;;14.77;7.50;;;3.30;99.90;;;;;;4994757;28;20073;-73
2021/11/09 06:13:58;;;;;;;23.35;8.77;;;3.30;99.90;;;;;;4993659;28;20031;-74
2021/11/09 06:16:23;;;;;;;28.38;10.75;;;3.20;99.90;;;;;;4976325;28;20027;-73
2021/11/09 06:18:49;;;;;;;58.55;19.83;;;3.20;99.90;;;;;;4977184;28;20117;-73
2021/11/09 06:21:15;;;;;;;29.10;14.15;;;3.20;99.90;;;;;;4994112;28;20177;-73
2021/11/09 06:23:41;;;;;;;36.03;13.68;;;3.10;99.90;;;;;;4976183;28;20049;-73
2021/11/09 06:26:07;;;;;;;43.70;16.80;;;3.10;99.90;;;;;;4977125;28;20025;-74
2021/11/09 06:28:33;;;;;;;35.63;15.85;;;3.00;99.90;;;;;;4978182;28;20022;-73
2021/11/09 06:30:58;;;;;;;35.03;13.15;;;3.00;99.90;;;;;;4976750;28;20036;-73
2021/11/09 06:33:24;;;;;;;28.17;12.80;;;3.00;99.90;;;;;;4975979;28;20026;-73
2021/11/09 06:35:51;;;;;;;31.85;14.02;;;3.00;99.90;;;;;;4994237;28;20079;-72
2021/11/09 06:38:18;;;;;;;27.45;12.30;;;3.00;99.90;;;;;;4976797;28;20481;-73
2021/11/09 06:40:44;;;;;;;26.92;11.13;;;3.00;99.90;;;;;;4976390;28;20054;-73
2021/11/09 06:43:10;;;;;;;23.38;11.15;;;3.00;99.90;;;;;;4993545;28;20030;-74
2021/11/09 06:45:36;;;;;;;28.83;11.75;;;3.00;99.90;;;;;;4993549;28;20098;-73
2021/11/09 06:48:02;;;;;;;28.58;11.77;;;3.00;99.90;;;;;;4993575;28;20030;-73
2021/11/09 06:50:28;;;;;;;22.42;10.43;;;3.10;99.90;;;;;;4974674;28;20417;-74
2021/11/09 06:52:53;;;;;;;20.88;10.10;;;3.10;99.90;;;;;;4982018;28;20056;-73
2021/11/09 06:55:19;;;;;;;18.42;8.70;;;3.10;99.90;;;;;;4987882;28;20034;-71
2021/11/09 06:57:45;;;;;;;19.85;8.25;;;3.10;99.90;;;;;;4988484;28;20106;-73
2021/11/09 07:00:14;;;;;;;12.40;7.32;;;3.20;99.90;;;;;;4975757;28;20084;-73
2021/11/09 07:02:40;;;;;;;12.93;6.47;;;3.50;99.90;;;;;;4989840;28;20022;-72
2021/11/09 07:05:07;;;;;;;15.88;5.95;;;3.90;99.90;;;;;;4992687;28;20371;-72
2021/11/09 07:07:32;;;;;;;14.45;5.65;;;4.10;99.90;;;;;;4983563;28;20494;-72
2021/11/09 07:09:58;;;;;;;8.93;5.45;;;4.30;99.90;;;;;;4973343;28;20038;-73
2021/11/09 07:12:24;;;;;;;8.88;5.00;;;4.50;99.90;;;;;;4969339;28;20031;-71
2021/11/09 07:14:50;;;;;;;9.82;5.45;;;4.80;99.90;;;;;;4987085;28;20027;-72
2021/11/09 07:17:16;;;;;;;10.15;5.40;;;5.00;99.90;;;;;;4975723;28;20402;-73
2021/11/09 07:19:47;;;;;;;12.50;6.30;;;5.50;99.90;;;;;;4975343;28;20034;-73
2021/11/09 07:22:15;;;;;;;13.73;6.45;;;5.80;99.90;;;;;;4990216;28;20034;-74
2021/11/09 07:24:41;;;;;;;15.00;6.60;;;6.10;99.90;;;;;;4974151;28;20029;-72
2021/11/09 07:27:07;;;;;;;10.00;5.63;;;6.30;99.90;;;;;;4970543;28;20154;-74
2021/11/09 07:29:32;;;;;;;10.73;5.43;;;6.30;99.90;;;;;;4992554;28;20106;-72
2021/11/09 07:31:58;;;;;;;12.82;5.80;;;6.40;99.90;;;;;;4991673;28;20026;-73
2021/11/09 07:34:25;;;;;;;7.93;4.97;;;6.60;99.90;;;;;;4974926;28;20030;-73
2021/11/09 07:36:51;;;;;;;12.60;4.85;;;6.70;99.90;;;;;;4975306;28;20027;-73
2021/11/09 07:39:16;;;;;;;9.48;5.47;;;6.70;99.90;;;;;;4975728;28;20606;-72
2021/11/09 07:41:43;;;;;;;13.75;6.13;;;6.90;99.90;;;;;;4991819;28;20131;-71
2021/11/09 07:44:10;;;;;;;8.95;4.40;;;7.00;99.90;;;;;;4991146;28;20035;-73
2021/11/09 07:46:37;;;;;;;11.20;5.15;;;7.10;99.90;;;;;;4992974;28;20042;-74
2021/11/09 07:49:03;;;;;;;10.07;5.65;;;7.20;99.90;;;;;;4975210;28;20062;-74
2021/11/09 07:51:29;;;;;;;10.60;5.97;;;7.30;99.90;;;;;;4993132;28;20057;-73
2021/11/09 07:53:58;;;;;;;10.77;5.15;;;7.30;99.90;;;;;;4974068;28;20628;-73
2021/11/09 07:56:26;;;;;;;13.98;5.88;;;7.40;99.90;;;;;;4991473;28;20026;-72
2021/11/09 07:59:02;;;;;;;13.65;6.50;;;7.40;99.90;;;;;;4992315;28;20026;-72
2021/11/09 08:01:34;;;;;;;13.02;6.30;;;7.40;99.90;;;;;;4974220;28;20030;-74
2021/11/09 08:04:12;;;;;;;13.57;6.00;;;7.50;99.90;;;;;;4992054;28;20026;-73
2021/11/09 08:11:47;;;;;;;14.55;6.65;;;7.40;99.60;;;;;;4991602;28;20037;-71
2021/11/09 08:14:13;;;;;;;12.80;5.70;;;7.30;99.40;;;;;;4989927;28;20390;-72
2021/11/09 08:16:40;;;;;;;10.20;4.82;;;7.20;99.50;;;;;;4984929;28;20085;-72
2021/11/09 08:19:06;;;;;;;12.55;5.35;;;7.10;99.40;;;;;;4974910;28;20050;-71
2021/11/09 08:21:33;;;;;;;13.52;5.53;;;7.10;99.30;;;;;;4991735;28;20048;-70
2021/11/09 08:24:00;;;;;;;9.88;4.93;;;7.00;99.30;;;;;;4990369;28;20054;-70
2021/11/09 08:26:26;;;;;;;11.00;5.20;;;7.00;99.40;;;;;;4989966;28;20105;-70
2021/11/09 08:28:54;;;;;;;13.35;5.25;;;7.00;99.40;;;;;;4989662;28;20019;-71
2021/11/09 08:31:21;;;;;;;8.68;5.13;;;7.00;99.30;;;;;;4988564;28;20031;-71
2021/11/09 08:33:49;;;;;;;11.85;5.13;;;7.00;99.40;;;;;;4971297;28;20041;-72
2021/11/09 08:36:18;;;;;;;9.45;4.85;;;7.00;99.30;;;;;;4971938;28;20050;-71
2021/11/09 08:38:45;;;;;;;14.25;5.05;;;7.00;99.30;;;;;;4973703;28;20085;-71
2021/11/09 08:41:12;;;;;;;11.27;5.60;;;7.00;99.40;;;;;;4975394;28;20437;-71
2021/11/09 08:43:40;;;;;;;11.13;5.28;;;6.90;99.30;;;;;;4993692;28;20101;-71
2021/11/09 08:46:22;;;;;;;11.80;4.88;;;7.00;99.30;;;;;;4990945;28;20069;-72
2021/11/09 08:48:50;;;;;;;10.13;4.80;;;7.00;99.40;;;;;;4989889;28;20022;-72
2021/11/09 08:51:17;;;;;;;10.00;5.05;;;7.00;99.40;;;;;;4970728;28;20031;-71
2021/11/09 08:53:51;;;;;;;12.30;5.13;;;7.00;99.40;;;;;;4990367;28;20026;-74
2021/11/09 09:06:37;;;;;;;9.15;4.18;;;7.30;99.20;;;;;;4987978;28;20114;-70
2021/11/09 09:09:03;;;;;;;9.70;4.15;;;7.30;99.20;;;;;;4986759;28;20109;-72
2021/11/09 09:11:30;;;;;;;8.65;4.20;;;7.30;99.10;;;;;;4972183;28;20028;-72
2021/11/09 09:13:56;;;;;;;8.85;4.05;;;7.40;98.90;;;;;;4988928;28;20026;-71
2021/11/09 09:16:22;;;;;;;8.90;4.50;;;7.40;98.80;;;;;;4972445;28;20192;-70
2021/11/09 09:18:48;;;;;;;11.07;4.00;;;7.40;98.80;;;;;;4989242;28;20030;-72
2021/11/09 09:21:26;;;;;;;10.82;4.10;;;7.50;98.80;;;;;;4973847;28;20478;-72
2021/11/09 09:23:57;;;;;;;8.32;3.97;;;7.50;98.70;;;;;;4972486;28;20438;-72
2021/11/09 09:56:05;;;;;;;5.43;2.25;;;8.00;97.50;;;;;;4996046;28;20029;-71
2021/11/09 09:58:30;;;;;;;5.45;1.95;;;8.10;97.40;;;;;;4995956;28;20077;-71
2021/11/09 10:00:56;;;;;;;8.27;2.50;;;8.20;97.40;;;;;;4997051;28;20054;-71
2021/11/09 10:03:37;;;;;;;7.50;2.42;;;8.20;97.00;;;;;;4995314;28;20026;-72
2021/11/09 10:06:04;;;;;;;6.80;2.60;;;8.20;96.80;;;;;;4974642;28;20041;-73
2021/11/09 10:08:48;;;;;;;4.65;2.25;;;8.30;96.80;;;;;;4996389;28;20026;-72
2021/11/09 10:11:34;;;;;;;7.07;2.17;;;8.30;96.50;;;;;;4983700;28;20045;-72
2021/11/09 10:14:01;;;;;;;4.07;1.67;;;8.30;96.50;;;;;;4997254;28;20044;-71
2021/11/09 10:16:27;;;;;;;7.72;2.03;;;8.40;96.40;;;;;;4995589;28;20033;-72
2021/11/09 10:18:52;;;;;;;7.55;1.70;;;8.40;96.30;;;;;;4996328;28;20030;-72
2021/11/09 10:21:18;;;;;;;6.90;1.90;;;8.50;96.20;;;;;;4996457;28;20034;-73
2021/11/09 10:26:17;;;;;;;4.07;1.40;;;8.50;95.80;;;;;;5010470;28;20054;-69
2021/11/09 10:28:45;;;;;;;5.35;1.58;;;8.60;95.70;;;;;;5012702;28;20029;-68
2021/11/09 10:31:15;;;;;;;2.95;1.80;;;8.60;95.50;;;;;;5016211;28;20029;-67
2021/11/09 10:33:43;;;;;;;3.08;1.65;;;8.70;95.30;;;;;;5008540;28;20110;-67
2021/11/09 10:36:20;;;;;;;3.83;1.40;;;8.70;95.20;;;;;;5013737;28;20026;-68
2021/11/09 10:38:47;;;;;;;5.88;1.25;;;8.70;94.90;;;;;;4995345;28;20026;-67
2021/11/09 10:41:14;;;;;;;1.95;1.30;;;8.70;95.00;;;;;;5011248;28;20034;-69
2021/11/09 10:43:40;;;;;;;2.78;1.20;;;8.70;94.90;;;;;;5010193;28;20044;-69
2021/11/09 10:46:06;;;;;;;2.20;1.42;;;8.70;94.90;;;;;;4996134;28;20121;-68
2021/11/09 10:48:33;;;;;;;3.55;1.23;;;8.80;94.90;;;;;;5012498;28;20121;-69
2021/11/09 10:51:00;;;;;;;2.97;1.10;;;8.90;94.80;;;;;;5011171;28;20025;-68
2021/11/09 10:53:39;;;;;;;1.38;1.25;;;8.90;94.60;;;;;;5011132;28;20088;-69
2021/11/09 10:59:24;;;;;;;3.88;1.40;;;8.90;94.10;;;;;;5009541;28;20037;-69
2021/11/09 11:04:47;;;;;;;5.50;1.20;;;8.90;94.10;;;;;;4976792;28;20473;-69
2021/11/09 11:07:14;;;;;;;3.03;1.10;;;9.00;94.30;;;;;;5006384;28;20026;-68
2021/11/09 11:09:41;;;;;;;2.42;1.20;;;9.00;94.20;;;;;;5011206;28;20029;-69
2021/11/09 11:12:10;;;;;;;4.32;1.42;;;9.00;94.10;;;;;;5018983;28;20041;-68
2021/11/09 11:14:37;;;;;;;3.28;0.98;;;9.10;94.00;;;;;;4990543;28;20076;-68
2021/11/09 11:17:07;;;;;;;4.30;1.30;;;9.10;93.90;;;;;;5013945;28;20081;-66
2021/11/09 11:19:45;;;;;;;3.40;1.20;;;9.10;93.80;;;;;;5012485;28;20030;-67
2021/11/09 11:22:19;;;;;;;1.98;1.40;;;9.20;93.70;;;;;;5008745;28;20038;-69
2021/11/09 11:24:46;;;;;;;5.38;1.20;;;9.20;93.80;;;;;;5010988;28;20494;-69
2021/11/09 11:27:13;;;;;;;4.10;1.52;;;9.30;93.70;;;;;;5011193;28;20339;-68
2021/11/09 11:29:40;;;;;;;3.45;1.27;;;9.30;93.60;;;;;;5012310;28;20359;-68
2021/11/09 11:32:07;;;;;;;1.52;1.00;;;9.40;93.60;;;;;;5018297;28;20028;-68
2021/11/09 11:34:33;;;;;;;3.53;1.20;;;9.50;93.30;;;;;;5007374;28;20030;-68
2021/11/09 11:36:59;;;;;;;4.05;1.30;;;9.60;93.10;;;;;;5008766;28;20030;-68
2021/11/09 11:39:28;;;;;;;1.83;1.20;;;9.80;92.90;;;;;;5008801;28;20438;-69
2021/11/09 11:42:07;;;;;;;3.50;1.30;;;9.90;92.70;;;;;;5007495;28;20478;-69
2021/11/09 11:44:33;;;;;;;3.85;1.20;;;10.00;92.40;;;;;;5007823;28;20104;-68
2021/11/09 11:47:11;;;;;;;3.28;1.38;;;10.10;92.40;;;;;;5010948;28;20069;-68
2021/11/09 11:49:42;;;;;;;2.85;1.30;;;10.20;92.20;;;;;;5009965;28;20026;-68
2021/11/09 11:52:12;;;;;;;3.47;1.25;;;10.30;92.10;;;;;;5007631;28;20500;-69
2021/11/09 11:54:38;;;;;;;1.55;0.95;;;10.30;91.90;;;;;;4995641;28;20105;-67
2021/11/09 11:57:04;;;;;;;2.33;1.38;;;10.40;92.00;;;;;;5008097;28;20117;-69
2021/11/09 11:59:32;;;;;;;2.33;1.10;;;10.50;91.90;;;;;;5011111;28;20544;-69
2021/11/09 12:02:03;;;;;;;3.05;1.33;;;10.60;91.80;;;;;;5009776;28;20057;-69
2021/11/09 12:04:42;;;;;;;2.75;1.40;;;10.60;91.70;;;;;;5010114;28;20034;-68
2021/11/09 12:07:10;;;;;;;1.88;1.23;;;10.70;91.50;;;;;;5008700;28;20033;-68
2021/11/09 12:09:38;;;;;;;4.15;1.52;;;10.70;91.60;;;;;;5011422;28;20030;-69
2021/11/09 12:12:20;;;;;;;3.33;1.52;;;10.80;91.40;;;;;;5014848;28;20026;-67
2021/11/09 12:15:02;;;;;;;4.18;1.52;;;10.80;91.30;;;;;;5014009;28;20025;-68
2021/11/09 12:17:35;;;;;;;2.03;1.40;;;10.90;91.20;;;;;;5011085;28;20026;-68
2021/11/09 12:20:09;;;;;;;3.25;1.17;;;10.90;91.30;;;;;;4993114;28;20037;-68
2021/11/09 12:22:44;;;;;;;3.10;1.15;;;11.00;91.10;;;;;;5007315;28;20037;-69
2021/11/09 12:25:21;;;;;;;1.95;1.20;;;11.10;91.10;;;;;;5010588;28;20033;-69
2021/11/09 12:27:51;;;;;;;2.97;1.40;;;11.10;90.90;;;;;;5017295;28;20025;-67
2021/11/09 12:30:32;;;;;;;6.03;1.58;;;11.20;91.00;;;;;;4987483;28;20025;-68
2021/11/09 12:33:11;;;;;;;2.50;1.17;;;11.20;90.60;;;;;;4999453;28;20435;-68
2021/11/09 12:35:38;;;;;;;5.13;1.50;;;11.20;90.60;;;;;;5002100;28;20019;-68
2021/11/09 12:38:04;;;;;;;3.67;1.52;;;11.30;90.90;;;;;;5005731;28;20066;-68
2021/11/09 12:40:49;;;;;;;2.40;1.40;;;11.30;90.80;;;;;;5005652;28;20056;-68
2021/11/09 12:43:30;;;;;;;4.85;1.17;;;11.40;90.50;;;;;;5005072;28;20033;-68
2021/11/09 12:46:28;;;;;;;3.65;1.38;;;11.40;90.50;;;;;;5010383;28;20017;-67
2021/11/09 12:49:01;;;;;;;1.80;1.23;;;11.50;90.20;;;;;;5001676;28;20065;-68
2021/11/09 12:51:29;;;;;;;2.35;1.15;;;11.50;90.30;;;;;;5001174;28;20494;-68
2021/11/09 12:53:59;;;;;;;2.45;1.13;;;11.60;90.60;;;;;;5003800;28;20026;-69
2021/11/09 12:56:32;;;;;;;3.40;1.20;;;11.70;90.60;;;;;;5001598;28;20036;-69
2021/11/09 12:59:06;;;;;;;1.88;1.10;;;11.70;90.50;;;;;;5003848;28;20476;-68
2021/11/09 13:04:43;;;;;;;1.65;0.85;;;11.90;90.20;;;;;;5006174;28;20041;-69
2021/11/09 13:09:55;;;;;;;3.42;1.00;;;12.00;90.20;;;;;;4996639;28;20033;-68
2021/11/09 13:12:23;;;;;;;1.95;1.10;;;12.00;90.20;;;;;;5012614;28;20391;-69
2021/11/09 13:15:00;;;;;;;2.03;0.80;;;12.10;90.20;;;;;;5005544;28;20045;-70
2021/11/09 13:17:36;;;;;;;1.10;0.80;;;12.10;90.20;;;;;;5016802;28;20377;-69
2021/11/09 13:20:35;;;;;;;1.17;0.90;;;12.20;89.60;;;;;;5008911;28;20061;-69
2021/11/09 13:23:24;;;;;;;3.33;0.90;;;12.10;88.90;;;;;;5001552;28;20624;-69
2021/11/09 13:25:51;;;;;;;2.80;1.02;;;12.10;89.00;;;;;;5008647;28;20030;-69
2021/11/09 13:28:32;;;;;;;5.25;0.90;;;12.10;89.30;;;;;;5017510;28;20084;-69
2021/11/09 13:31:08;;;;;;;4.22;1.00;;;12.10;88.70;;;;;;5003719;28;20508;-68
2021/11/09 13:33:39;;;;;;;2.92;0.98;;;12.10;88.80;;;;;;5006821;28;20114;-69
2021/11/09 13:36:05;;;;;;;2.13;0.80;;;12.10;88.90;;;;;;5011067;28;20060;-69
2021/11/09 13:38:37;;;;;;;1.58;0.90;;;12.20;88.50;;;;;;5008713;28;20088;-68
2021/11/09 13:41:18;;;;;;;2.25;1.08;;;12.20;87.90;;;;;;5009426;28;20587;-68
2021/11/09 13:43:50;;;;;;;1.60;1.00;;;12.10;87.50;;;;;;5009146;28;20053;-69
2021/11/09 13:46:25;;;;;;;1.60;1.10;;;12.10;87.80;;;;;;5010749;28;20075;-70
2021/11/09 13:48:56;;;;;;;0.90;0.80;;;12.10;87.80;;;;;;5010677;28;20029;-69
2021/11/09 13:51:24;;;;;;;2.65;1.00;;;12.10;88.00;;;;;;5010653;28;20029;-69
2021/11/09 13:53:56;;;;;;;2.20;0.82;;;12.10;87.80;;;;;;4990790;28;20056;-69
2021/11/09 13:56:23;;;;;;;2.63;0.90;;;12.10;87.90;;;;;;5004609;28;20386;-69
2021/11/09 13:59:21;;;;;;;1.30;0.80;;;12.10;87.90;;;;;;5028401;28;20021;-69
2021/11/09 14:10:04;;;;;;;1.35;1.00;;;12.20;87.70;;;;;;5010721;28;20064;-69
2021/11/09 14:17:41;;;;;;;1.77;0.73;;;12.40;86.50;;;;;;5012555;28;20524;-69
2021/11/09 14:20:16;;;;;;;2.50;0.98;;;12.30;86.80;;;;;;5011112;28;20034;-70
2021/11/09 14:22:45;;;;;;;2.85;0.90;;;12.30;86.20;;;;;;5011316;28;20061;-69
2021/11/09 14:25:11;;;;;;;4.38;1.17;;;12.20;86.40;;;;;;5015727;28;20080;-70
2021/11/09 14:27:46;;;;;;;1.95;1.00;;;12.10;86.50;;;;;;5003035;28;20026;-69
2021/11/09 14:30:19;;;;;;;1.80;1.08;;;12.10;86.50;;;;;;5023643;28;20032;-68
2021/11/09 14:32:45;;;;;;;2.05;0.80;;;12.00;86.10;;;;;;4998015;28;20030;-69
2021/11/09 14:35:22;;;;;;;4.13;1.20;;;11.90;86.10;;;;;;5010637;28;20367;-69
2021/11/09 14:38:01;;;;;;;2.28;1.00;;;11.70;85.40;;;;;;5012233;28;20046;-69
2021/11/09 14:40:43;;;;;;;1.52;0.90;;;11.40;85.20;;;;;;5009508;28;20057;-70
2021/11/09 14:43:12;;;;;;;;;;;11.20;84.90;;;;;;5015711;28;20052;-69
2021/11/09 14:48:19;;;;;;;2.92;1.10;;;10.80;86.00;;;;;;5011295;28;20038;-69
2021/11/09 14:50:53;;;;;;;2.92;1.13;;;10.60;86.00;;;;;;5012798;28;20433;-68
2021/11/09 14:53:32;;;;;;;2.58;1.17;;;10.50;86.00;;;;;;5016069;28;20478;-69
2021/11/09 14:56:05;;;;;;;2.75;1.15;;;10.40;86.20;;;;;;5008562;28;20025;-69
2021/11/09 14:58:53;;;;;;;3.83;1.70;;;10.30;86.30;;;;;;5008464;28;20100;-69
2021/11/09 15:01:26;;;;;;;3.22;1.25;;;10.20;86.40;;;;;;5006395;28;20620;-70
2021/11/09 15:03:56;;;;;;;3.53;1.33;;;10.10;86.70;;;;;;5008946;28;21493;-68
2021/11/09 15:06:31;;;;;;;1.48;1.08;;;10.00;86.70;;;;;;5008511;28;20041;-68
2021/11/09 15:28:10;;;;;;;6.35;1.40;;;9.50;88.40;;;;;;5021163;28;20048;-70
2021/11/09 15:30:58;;;;;;;5.05;1.30;;;9.50;88.60;;;;;;5012584;28;20022;-70
2021/11/09 15:38:36;;;;;;;5.45;1.80;;;9.30;88.90;;;;;;5019101;28;20625;-69
2021/11/09 15:41:02;;;;;;;3.47;1.50;;;9.30;89.10;;;;;;5010800;28;20075;-69
2021/11/09 15:43:29;;;;;;;5.72;1.40;;;9.20;89.70;;;;;;5011538;28;20026;-70
2021/11/09 15:45:55;;;;;;;2.00;1.23;;;9.10;89.40;;;;;;5009528;28;20018;-68
2021/11/09 15:48:21;;;;;;;3.47;1.70;;;9.10;89.60;;;;;;5009476;28;20030;-68
2021/11/09 15:50:46;;;;;;;2.42;1.50;;;9.00;89.90;;;;;;5003680;28;20029;-69
2021/11/09 15:53:13;;;;;;;3.80;1.35;;;9.00;90.10;;;;;;5011563;28;20106;-70
2021/11/09 15:55:38;;;;;;;3.97;1.80;;;9.00;90.20;;;;;;5015401;28;20025;-69
2021/11/09 15:58:04;;;;;;;2.63;1.75;;;8.90;90.20;;;;;;5023237;28;20101;-70